Time,TemperatureF,DewpointF,PressureIn,WindDirection,WindDirectionDegrees,WindSpeedMPH,WindSpeedGustMPH,Humidity,HourlyPrecipIn,Conditions,Clouds,dailyrainin,SoftwareType,DateUTC
2013-06-23 00:00:00,65.6,54.1,30.18,SW,225,0.8,2.7,67,0.00,,,0.00,WSDL version 420,2013-06-23 04:00:00,
2013-06-23 00:02:00,65.6,54.1,30.18,SW,231,0.6,1.6,67,0.00,,,0.00,WSDL version 420,2013-06-23 04:02:00,
2013-06-23 00:03:00,65.5,54.2,30.18,SW,233,0.4,1.6,67,0.00,,,0.00,WSDL version 420,2013-06-23 04:03:00,
2013-06-23 00:07:00,65.5,54.2,30.18,SW,231,0.4,1.6,67,0.00,,,0.00,WSDL version 420,2013-06-23 04:07:00,
2013-06-23 00:13:00,65.4,54.2,30.18,SW,231,0.0,1.6,67,0.00,,,0.00,WSDL version 420,2013-06-23 04:13:00,
2013-06-23 00:20:00,65.2,54.4,30.18,SW,236,0.4,0.9,68,0.00,,,0.00,WSDL version 420,2013-06-23 04:20:00,
2013-06-23 00:25:00,65.1,54.7,30.18,WSW,248,0.0,0.9,70,0.00,,,0.00,WSDL version 420,2013-06-23 04:25:00,
2013-06-23 00:31:00,65.1,55.0,30.18,WSW,248,0.0,0.0,70,0.00,,,0.00,WSDL version 420,2013-06-23 04:31:00,
2013-06-23 00:38:00,64.9,55.2,30.18,WSW,248,0.0,0.9,71,0.00,,,0.00,WSDL version 420,2013-06-23 04:38:00,
2013-06-23 00:41:00,64.9,55.3,30.18,West,259,0.3,1.1,71,0.00,,,0.00,WSDL version 420,2013-06-23 04:41:00,
2013-06-23 00:48:00,64.7,55.3,30.18,West,270,0.0,1.1,72,0.00,,,0.00,WSDL version 420,2013-06-23 04:48:00,
2013-06-23 00:53:00,64.5,55.1,30.18,West,270,0.0,0.9,72,0.00,,,0.00,WSDL version 420,2013-06-23 04:53:00,
2013-06-23 00:59:00,64.2,54.6,30.18,West,270,0.0,0.9,71,0.00,,,0.00,WSDL version 420,2013-06-23 04:59:00,
2013-06-23 01:06:00,64.2,54.9,30.18,SW,225,0.0,1.3,72,0.00,,,0.00,WSDL version 420,2013-06-23 05:06:00,
2013-06-23 01:12:00,64.4,55.1,30.18,SW,225,0.0,1.3,71,0.00,,,0.00,WSDL version 420,2013-06-23 05:12:00,
2013-06-23 01:19:00,64.4,55.2,30.18,SW,225,0.0,0.9,72,0.00,,,0.00,WSDL version 420,2013-06-23 05:19:00,
2013-06-23 01:26:00,64.4,55.6,30.18,SW,225,0.5,2.0,73,0.00,,,0.00,WSDL version 420,2013-06-23 05:26:00,
2013-06-23 01:32:00,64.4,55.5,30.18,SW,225,0.0,1.6,73,0.00,,,0.00,WSDL version 420,2013-06-23 05:32:00,
2013-06-23 01:39:00,64.3,55.6,30.18,SW,225,0.0,0.0,74,0.00,,,0.00,WSDL version 420,2013-06-23 05:39:00,
2013-06-23 01:45:00,64.5,56.0,30.18,SW,225,0.0,0.0,73,0.00,,,0.00,WSDL version 420,2013-06-23 05:45:00,
2013-06-23 01:52:00,64.3,55.6,30.18,SW,225,0.0,0.0,74,0.00,,,0.00,WSDL version 420,2013-06-23 05:52:00,
2013-06-23 01:59:00,64.2,55.8,30.18,SW,225,0.0,0.0,74,0.00,,,0.00,WSDL version 420,2013-06-23 05:59:00,
2013-06-23 02:05:00,64.0,56.0,30.18,SW,225,0.0,0.0,76,-99.99,,,-99.99,WSDL version 420,2013-06-23 06:05:00,
2013-06-23 02:12:00,63.6,55.8,30.15,SW,225,0.0,0.0,76,0.00,,,0.00,WSDL version 420,2013-06-23 06:12:00,
2013-06-23 02:14:00,63.7,56.0,30.15,SW,225,0.0,0.0,76,0.00,,,0.00,WSDL version 420,2013-06-23 06:14:00,
2013-06-23 02:20:00,63.9,56.2,30.15,SW,225,0.0,0.0,76,0.00,,,0.00,WSDL version 420,2013-06-23 06:20:00,
2013-06-23 02:27:00,63.9,56.2,30.15,SW,225,0.0,0.0,76,0.00,,,0.00,WSDL version 420,2013-06-23 06:27:00,
2013-06-23 02:32:00,63.6,56.3,30.15,SW,225,0.0,0.0,77,0.00,,,0.00,WSDL version 420,2013-06-23 06:32:00,
2013-06-23 02:37:00,63.2,55.9,30.15,SW,225,0.0,0.0,77,0.00,,,0.00,WSDL version 420,2013-06-23 06:37:00,
2013-06-23 02:43:00,63.2,56.1,30.15,SW,225,0.0,0.0,77,0.00,,,0.00,WSDL version 420,2013-06-23 06:43:00,
2013-06-23 02:50:00,63.1,56.2,30.15,SW,225,0.0,0.0,78,0.00,,,0.00,WSDL version 420,2013-06-23 06:50:00,
2013-06-23 02:57:00,63.1,56.3,30.15,SW,225,0.0,0.0,79,0.00,,,0.00,WSDL version 420,2013-06-23 06:57:00,
2013-06-23 03:02:00,63.2,56.5,30.15,SW,225,0.0,0.0,79,-99.99,,,-99.99,WSDL version 420,2013-06-23 07:02:00,
2013-06-23 03:07:00,63.1,56.3,30.15,SW,225,0.0,0.0,79,0.00,,,0.00,WSDL version 420,2013-06-23 07:07:00,
2013-06-23 03:13:00,63.1,56.4,30.15,SW,225,0.0,0.0,79,0.00,,,0.00,WSDL version 420,2013-06-23 07:13:00,
2013-06-23 03:18:00,63.0,56.5,30.15,SW,225,0.0,0.0,80,0.00,,,0.00,WSDL version 420,2013-06-23 07:18:00,
2013-06-23 03:23:00,62.4,56.4,30.15,SW,225,0.0,0.0,81,0.00,,,0.00,WSDL version 420,2013-06-23 07:23:00,
2013-06-23 03:28:00,62.7,56.6,30.15,SW,225,0.0,0.0,80,0.00,,,0.00,WSDL version 420,2013-06-23 07:28:00,
2013-06-23 03:34:00,62.7,56.5,30.15,SW,225,0.0,0.0,80,0.00,,,0.00,WSDL version 420,2013-06-23 07:34:00,
2013-06-23 03:39:00,62.7,56.8,30.15,SW,225,0.0,0.0,81,0.00,,,0.00,WSDL version 420,2013-06-23 07:39:00,
2013-06-23 03:44:00,62.6,56.7,30.15,SW,225,0.0,0.0,81,0.00,,,0.00,WSDL version 420,2013-06-23 07:44:00,
2013-06-23 03:50:00,62.3,56.6,30.15,SW,225,0.0,0.0,82,0.00,,,0.00,WSDL version 420,2013-06-23 07:50:00,
2013-06-23 03:55:00,62.4,56.9,30.15,SW,225,0.0,0.0,82,0.00,,,0.00,WSDL version 420,2013-06-23 07:55:00,
2013-06-23 04:00:00,62.5,57.0,30.15,SW,225,0.0,0.0,82,0.00,,,0.00,WSDL version 420,2013-06-23 08:00:00,
2013-06-23 04:05:00,62.5,57.1,30.15,SW,225,0.0,0.0,82,0.00,,,0.00,WSDL version 420,2013-06-23 08:05:00,
2013-06-23 04:10:00,62.6,57.1,30.15,SW,225,0.0,0.0,82,0.00,,,0.00,WSDL version 420,2013-06-23 08:10:00,
2013-06-23 04:15:00,62.6,57.1,30.15,SW,225,0.0,0.0,82,0.00,,,0.00,WSDL version 420,2013-06-23 08:15:00,
2013-06-23 04:21:00,62.4,56.9,30.15,SW,225,0.0,0.0,82,0.00,,,0.00,WSDL version 420,2013-06-23 08:21:00,
2013-06-23 04:26:00,-999.0,-99.9,30.15,SW,225,0.0,0.0,-999,0.00,,,0.00,WSDL version 420,2013-06-23 08:26:00,
2013-06-23 04:31:00,62.1,57.0,30.15,SW,225,0.0,0.0,83,0.00,,,0.00,WSDL version 420,2013-06-23 08:31:00,
2013-06-23 04:36:00,62.2,57.0,30.15,SW,225,0.0,0.0,82,0.00,,,0.00,WSDL version 420,2013-06-23 08:36:00,
2013-06-23 04:41:00,62.2,57.0,30.15,SW,225,0.0,0.0,82,0.00,,,0.00,WSDL version 420,2013-06-23 08:41:00,
2013-06-23 04:46:00,62.2,56.9,30.15,SW,225,0.0,0.0,83,0.00,,,0.00,WSDL version 420,2013-06-23 08:46:00,
2013-06-23 04:51:00,62.1,57.0,30.15,SW,225,0.0,0.0,83,0.00,,,0.00,WSDL version 420,2013-06-23 08:51:00,
2013-06-23 04:56:00,62.1,57.0,30.15,SW,225,0.0,0.0,83,0.00,,,0.00,WSDL version 420,2013-06-23 08:56:00,
2013-06-23 05:01:00,61.9,56.8,30.15,SW,225,0.0,0.0,83,0.00,,,0.00,WSDL version 420,2013-06-23 09:01:00,
2013-06-23 05:07:00,61.9,57.1,30.15,SW,225,0.0,0.0,84,0.00,,,0.00,WSDL version 420,2013-06-23 09:07:00,
2013-06-23 05:12:00,61.8,57.0,30.15,SW,225,0.0,0.0,84,0.00,,,0.00,WSDL version 420,2013-06-23 09:12:00,
2013-06-23 05:17:00,61.9,57.1,30.15,SW,225,0.0,0.0,84,0.00,,,0.00,WSDL version 420,2013-06-23 09:17:00,
2013-06-23 05:22:00,61.7,57.0,30.15,SW,225,0.0,0.0,84,0.00,,,0.00,WSDL version 420,2013-06-23 09:22:00,
2013-06-23 05:27:00,61.5,56.8,30.15,SW,225,0.0,0.0,86,0.00,,,0.00,WSDL version 420,2013-06-23 09:27:00,
2013-06-23 05:32:00,61.6,57.3,30.15,SW,225,0.0,0.0,86,0.00,,,0.00,WSDL version 420,2013-06-23 09:32:00,
2013-06-23 05:37:00,61.6,57.3,30.15,SW,225,0.0,0.0,86,0.00,,,0.00,WSDL version 420,2013-06-23 09:37:00,
2013-06-23 05:43:00,61.6,57.4,30.15,SW,225,0.0,0.0,87,0.00,,,0.00,WSDL version 420,2013-06-23 09:43:00,
2013-06-23 05:48:00,61.7,57.3,30.15,SW,225,0.0,0.0,86,0.00,,,0.00,WSDL version 420,2013-06-23 09:48:00,
2013-06-23 05:53:00,61.7,57.3,30.15,SW,225,0.0,0.0,86,0.00,,,0.00,WSDL version 420,2013-06-23 09:53:00,
2013-06-23 05:58:00,61.8,57.6,30.15,SW,225,0.0,0.0,86,0.00,,,0.00,WSDL version 420,2013-06-23 09:58:00,
2013-06-23 06:03:00,61.7,57.7,30.15,SW,225,0.0,0.0,87,0.00,,,0.00,WSDL version 420,2013-06-23 10:03:00,
2013-06-23 06:08:00,62.0,58.2,30.15,SW,225,0.0,0.0,87,0.00,,,0.00,WSDL version 420,2013-06-23 10:08:00,
2013-06-23 06:13:00,62.2,58.2,30.15,SW,225,0.0,0.0,87,0.00,,,0.00,WSDL version 420,2013-06-23 10:13:00,
2013-06-23 06:18:00,62.4,58.4,30.15,SW,225,0.0,0.0,87,0.00,,,0.00,WSDL version 420,2013-06-23 10:18:00,
2013-06-23 06:24:00,62.6,58.2,30.15,SW,225,0.0,0.0,86,0.00,,,0.00,WSDL version 420,2013-06-23 10:24:00,
2013-06-23 06:29:00,62.6,58.2,30.15,SW,225,0.0,0.0,86,-99.99,,,-99.99,WSDL version 420,2013-06-23 10:29:00,
2013-06-23 06:34:00,62.6,58.2,30.15,West,266,0.0,0.0,86,0.00,,,0.00,WSDL version 420,2013-06-23 10:34:00,
2013-06-23 06:39:00,62.7,58.2,30.15,SW,219,0.0,0.0,86,0.00,,,0.00,WSDL version 420,2013-06-23 10:39:00,
2013-06-23 06:44:00,62.9,58.5,30.15,SW,225,0.0,0.0,86,0.00,,,0.00,WSDL version 420,2013-06-23 10:44:00,
2013-06-23 06:49:00,63.1,58.7,30.15,SW,225,0.0,0.0,86,0.00,,,0.00,WSDL version 420,2013-06-23 10:49:00,
2013-06-23 06:55:00,63.4,59.0,30.15,SW,225,0.0,0.0,86,0.00,,,0.00,WSDL version 420,2013-06-23 10:55:00,
2013-06-23 07:00:00,63.5,59.1,30.15,SW,225,0.0,0.0,86,0.00,,,0.00,WSDL version 420,2013-06-23 11:00:00,
2013-06-23 07:05:00,63.7,59.3,30.15,SW,225,0.0,0.0,86,0.00,,,0.00,WSDL version 420,2013-06-23 11:05:00,
2013-06-23 07:10:00,63.7,58.9,30.15,SW,225,0.0,0.0,84,0.00,,,0.00,WSDL version 420,2013-06-23 11:10:00,
2013-06-23 07:15:00,64.0,59.2,30.15,SW,225,0.0,0.0,84,0.00,,,0.00,WSDL version 420,2013-06-23 11:15:00,
2013-06-23 07:20:00,64.4,59.6,30.15,SSW,208,0.0,0.0,84,0.00,,,0.00,WSDL version 420,2013-06-23 11:20:00,
2013-06-23 07:25:00,64.8,59.8,30.15,SSE,158,0.0,0.0,83,0.00,,,0.00,WSDL version 420,2013-06-23 11:25:00,
2013-06-23 07:31:00,65.0,59.8,30.15,SSE,158,0.0,0.0,83,0.00,,,0.00,WSDL version 420,2013-06-23 11:31:00,
2013-06-23 07:36:00,65.4,60.5,30.15,SSE,158,0.0,0.0,83,0.00,,,0.00,WSDL version 420,2013-06-23 11:36:00,
2013-06-23 07:41:00,65.7,60.7,30.15,SSE,158,0.0,1.1,84,0.00,,,0.00,WSDL version 420,2013-06-23 11:41:00,
2013-06-23 07:46:00,66.1,61.3,30.15,SSE,158,0.0,1.1,84,0.00,,,0.00,WSDL version 420,2013-06-23 11:46:00,
2013-06-23 07:51:00,66.3,61.5,30.15,SE,146,0.6,1.3,84,0.00,,,0.00,WSDL version 420,2013-06-23 11:51:00,
2013-06-23 07:57:00,66.6,61.7,30.18,SSE,152,0.6,1.6,84,0.00,,,0.00,WSDL version 420,2013-06-23 11:57:00,
2013-06-23 08:02:00,67.0,61.9,30.18,SE,135,0.0,1.6,83,0.00,,,0.00,WSDL version 420,2013-06-23 12:02:00,
2013-06-23 08:07:00,67.2,61.9,30.18,SE,135,0.0,1.3,83,0.00,,,0.00,WSDL version 420,2013-06-23 12:07:00,
2013-06-23 08:12:00,67.5,62.5,30.18,SE,135,1.0,1.1,84,0.00,,,0.00,WSDL version 420,2013-06-23 12:12:00,
2013-06-23 08:18:00,67.8,62.7,30.18,SE,135,1.1,1.1,83,0.00,,,0.00,WSDL version 420,2013-06-23 12:18:00,
2013-06-23 08:23:00,68.4,63.1,30.18,ESE,120,0.9,1.1,83,0.00,,,0.00,WSDL version 420,2013-06-23 12:23:00,
2013-06-23 08:28:00,68.4,63.2,30.18,SE,135,0.2,0.9,83,0.00,,,0.00,WSDL version 420,2013-06-23 12:28:00,
2013-06-23 08:33:00,68.7,63.7,30.18,East,90,0.9,2.7,84,0.00,,,0.00,WSDL version 420,2013-06-23 12:33:00,
2013-06-23 08:38:00,69.3,64.0,30.18,SSE,158,0.0,2.7,83,0.00,,,0.00,WSDL version 420,2013-06-23 12:38:00,
2013-06-23 08:43:00,69.5,64.2,30.18,SSE,158,0.0,0.0,83,0.00,,,0.00,WSDL version 420,2013-06-23 12:43:00,
2013-06-23 08:48:00,69.8,64.4,30.18,East,96,0.3,1.1,82,0.00,,,0.00,WSDL version 420,2013-06-23 12:48:00,
2013-06-23 08:54:00,70.2,64.7,30.18,SE,141,0.5,1.3,83,0.00,,,0.00,WSDL version 420,2013-06-23 12:54:00,
2013-06-23 08:59:00,70.7,65.0,30.18,SSE,158,0.7,2.7,82,0.00,,,0.00,WSDL version 420,2013-06-23 12:59:00,
2013-06-23 09:04:00,71.1,65.4,30.18,SSW,212,1.3,2.7,82,0.00,,,0.00,WSDL version 420,2013-06-23 13:04:00,
2013-06-23 09:09:00,71.7,65.7,30.18,SE,129,0.8,2.5,81,0.00,,,0.00,WSDL version 420,2013-06-23 13:09:00,
2013-06-23 09:15:00,72.0,65.9,30.18,SE,129,1.1,2.5,81,0.00,,,0.00,WSDL version 420,2013-06-23 13:15:00,
2013-06-23 09:20:00,72.4,66.2,30.18,SSE,153,1.4,3.6,80,0.00,,,0.00,WSDL version 420,2013-06-23 13:20:00,
2013-06-23 09:25:00,-999.0,-99.9,30.18,South,169,1.0,3.6,-999,0.00,,,0.00,WSDL version 420,2013-06-23 13:25:00,
2013-06-23 09:31:00,73.1,66.6,30.18,SSE,150,1.4,3.6,80,0.00,,,0.00,WSDL version 420,2013-06-23 13:31:00,
2013-06-23 09:36:00,73.3,66.6,30.18,ESE,118,2.1,2.9,79,0.00,,,0.00,WSDL version 420,2013-06-23 13:36:00,
2013-06-23 09:41:00,73.7,66.8,30.18,South,171,1.1,3.1,79,0.00,,,0.00,WSDL version 420,2013-06-23 13:41:00,
2013-06-23 09:47:00,74.2,67.3,30.18,SW,214,0.7,3.1,79,0.00,,,0.00,WSDL version 420,2013-06-23 13:47:00,
2013-06-23 09:52:00,74.5,67.3,30.15,South,191,0.8,1.6,78,0.00,,,0.00,WSDL version 420,2013-06-23 13:52:00,
2013-06-23 09:57:00,74.8,67.4,30.15,South,171,0.5,2.7,78,0.00,,,0.00,WSDL version 420,2013-06-23 13:57:00,
2013-06-23 10:03:00,75.1,67.5,30.15,ESE,113,1.2,3.1,77,0.00,,,0.00,WSDL version 420,2013-06-23 14:03:00,
2013-06-23 10:08:00,75.7,68.0,30.15,SE,135,1.2,3.1,77,0.00,,,0.00,WSDL version 420,2013-06-23 14:08:00,
2013-06-23 10:13:00,76.0,67.9,30.15,SSE,158,1.3,2.7,76,0.00,,,0.00,WSDL version 420,2013-06-23 14:13:00,
2013-06-23 10:19:00,76.3,68.2,30.15,SW,216,0.9,2.7,76,0.00,,,0.00,WSDL version 420,2013-06-23 14:19:00,
2013-06-23 10:24:00,76.7,68.6,30.15,WSW,242,1.2,1.3,75,0.00,,,0.00,WSDL version 420,2013-06-23 14:24:00,
2013-06-23 10:29:00,77.0,68.5,30.15,NW,315,1.7,4.3,75,0.00,,,0.00,WSDL version 420,2013-06-23 14:29:00,
2013-06-23 10:34:00,77.5,69.0,30.15,South,188,0.8,4.3,75,0.00,,,0.00,WSDL version 420,2013-06-23 14:34:00,
2013-06-23 10:40:00,78.0,68.7,30.15,SSE,163,1.7,2.5,73,0.00,,,0.00,WSDL version 420,2013-06-23 14:40:00,
2013-06-23 10:45:00,78.3,69.0,30.15,East,90,0.2,2.5,73,0.00,,,0.00,WSDL version 420,2013-06-23 14:45:00,
2013-06-23 10:50:00,78.8,68.7,30.15,SSE,167,1.7,2.7,71,0.00,,,0.00,WSDL version 420,2013-06-23 14:50:00,
2013-06-23 10:56:00,79.2,69.0,30.15,SSE,158,1.0,2.7,71,0.00,,,0.00,WSDL version 420,2013-06-23 14:56:00,
2013-06-23 11:01:00,79.9,69.4,30.15,South,180,2.0,3.1,69,0.00,,,0.00,WSDL version 420,2013-06-23 15:01:00,
2013-06-23 11:06:00,79.9,68.9,30.15,SSE,165,1.0,3.1,69,0.00,,,0.00,WSDL version 420,2013-06-23 15:06:00,
2013-06-23 11:12:00,80.2,69.2,30.15,SSE,163,0.4,2.0,70,0.00,,,0.00,WSDL version 420,2013-06-23 15:12:00,
2013-06-23 11:17:00,80.3,69.0,30.15,SSE,152,2.6,3.8,69,0.00,,,0.00,WSDL version 420,2013-06-23 15:17:00,
2013-06-23 11:22:00,80.7,68.5,30.15,SSE,150,2.5,3.8,66,0.00,,,0.00,WSDL version 420,2013-06-23 15:22:00,
2013-06-23 11:28:00,80.9,68.8,30.15,SSW,212,2.3,3.4,66,-99.99,,,-99.99,WSDL version 420,2013-06-23 15:28:00,
2013-06-23 11:35:00,81.4,69.0,30.15,SSE,158,1.0,3.4,65,0.00,,,0.00,WSDL version 420,2013-06-23 15:35:00,
2013-06-23 11:40:00,82.0,69.0,30.15,SW,225,0.6,2.0,65,-99.99,,,-99.99,WSDL version 420,2013-06-23 15:40:00,
2013-06-23 11:45:00,81.9,69.1,30.15,South,180,1.1,2.0,66,0.00,,,0.00,WSDL version 420,2013-06-23 15:45:00,
2013-06-23 11:51:00,82.9,70.1,30.15,South,180,1.1,1.1,65,0.00,,,0.00,WSDL version 420,2013-06-23 15:51:00,
2013-06-23 11:56:00,83.0,70.3,30.15,SE,135,1.3,4.0,65,0.00,,,0.00,WSDL version 420,2013-06-23 15:56:00,
2013-06-23 12:01:00,82.9,68.9,30.15,ESE,113,3.1,4.0,61,0.00,,,0.00,WSDL version 420,2013-06-23 16:01:00,
2013-06-23 12:07:00,82.9,68.5,30.15,West,275,3.0,5.4,61,0.00,,,0.00,WSDL version 420,2013-06-23 16:07:00,
2013-06-23 12:12:00,-999.0,-99.9,30.15,WSW,255,0.9,5.4,-999,0.00,,,0.00,WSDL version 420,2013-06-23 16:12:00,
2013-06-23 12:18:00,83.1,68.6,30.15,SW,233,1.3,1.3,62,0.00,,,0.00,WSDL version 420,2013-06-23 16:18:00,
2013-06-23 12:23:00,83.3,68.5,30.15,SW,214,1.9,2.2,60,0.00,,,0.00,WSDL version 420,2013-06-23 16:23:00,
2013-06-23 12:28:00,83.6,68.0,30.15,SW,225,1.2,4.9,60,0.00,,,0.00,WSDL version 420,2013-06-23 16:28:00,
2013-06-23 12:36:00,83.9,68.0,30.15,South,180,0.9,4.9,59,0.00,,,0.00,WSDL version 420,2013-06-23 16:36:00,
2013-06-23 12:41:00,84.1,67.9,30.15,South,186,1.5,1.6,58,0.00,,,0.00,WSDL version 420,2013-06-23 16:41:00,
2013-06-23 12:46:00,83.9,66.9,30.15,SE,135,2.5,3.1,57,0.00,,,0.00,WSDL version 420,2013-06-23 16:46:00,
2013-06-23 12:52:00,84.4,66.5,30.15,SSE,158,2.0,3.1,56,0.00,,,0.00,WSDL version 420,2013-06-23 16:52:00,
2013-06-23 12:57:00,84.6,66.6,30.12,South,189,2.3,3.4,55,0.00,,,0.00,WSDL version 420,2013-06-23 16:57:00,
2013-06-23 12:59:00,84.5,66.2,30.12,South,180,2.7,3.4,53,0.00,,,0.00,WSDL version 420,2013-06-23 16:59:00,
2013-06-23 13:01:00,84.6,66.3,30.12,South,171,1.5,3.6,55,0.00,,,0.00,WSDL version 420,2013-06-23 17:01:00,
2013-06-23 13:06:00,85.0,67.6,30.12,SE,135,0.9,3.6,56,0.00,,,0.00,WSDL version 420,2013-06-23 17:06:00,
2013-06-23 13:08:00,85.2,67.4,30.12,SSE,165,1.2,3.6,54,0.00,,,0.00,WSDL version 420,2013-06-23 17:08:00,
2013-06-23 13:13:00,85.3,67.0,30.12,North,360,2.0,2.0,54,0.00,,,0.00,WSDL version 420,2013-06-23 17:13:00,
2013-06-23 13:15:00,85.5,67.2,30.12,WSW,255,0.7,2.0,54,0.00,,,0.00,WSDL version 420,2013-06-23 17:15:00,
2013-06-23 13:20:00,85.5,66.6,30.12,East,90,1.6,3.8,53,0.00,,,0.00,WSDL version 420,2013-06-23 17:20:00,
2013-06-23 13:25:00,85.7,66.8,30.12,SW,225,2.9,3.8,53,-99.99,,,-99.99,WSDL version 420,2013-06-23 17:25:00,
2013-06-23 13:31:00,86.0,66.9,30.12,East,101,1.2,2.9,53,0.00,,,0.00,WSDL version 420,2013-06-23 17:31:00,
2013-06-23 13:36:00,86.4,65.5,30.12,North,360,2.0,2.9,50,0.00,,,0.00,WSDL version 420,2013-06-23 17:36:00,
2013-06-23 13:41:00,86.4,65.9,30.12,NW,309,1.5,2.0,51,0.00,,,0.00,WSDL version 420,2013-06-23 17:41:00,
2013-06-23 13:47:00,87.1,66.6,30.12,SW,225,1.3,2.0,51,0.00,,,0.00,WSDL version 420,2013-06-23 17:47:00,
2013-06-23 13:52:00,87.4,66.5,30.12,ESE,113,1.7,4.0,50,0.00,,,0.00,WSDL version 420,2013-06-23 17:52:00,
2013-06-23 13:58:00,87.4,66.5,30.12,SSW,203,1.0,4.0,51,0.00,,,0.00,WSDL version 420,2013-06-23 17:58:00,
2013-06-23 14:03:00,87.4,65.9,30.12,SSE,152,2.4,3.6,49,0.00,,,0.00,WSDL version 420,2013-06-23 18:03:00,
2013-06-23 14:09:00,87.8,66.0,30.12,SSE,158,0.8,3.6,48,0.00,,,0.00,WSDL version 420,2013-06-23 18:09:00,
2013-06-23 14:14:00,88.2,66.2,30.12,South,191,1.6,2.5,48,0.00,,,0.00,WSDL version 420,2013-06-23 18:14:00,
2013-06-23 14:19:00,88.9,66.3,30.12,SSE,158,1.6,2.5,48,0.00,,,0.00,WSDL version 420,2013-06-23 18:19:00,
2013-06-23 14:25:00,88.3,65.8,30.09,SW,218,1.1,2.5,47,0.00,,,0.00,WSDL version 420,2013-06-23 18:25:00,
2013-06-23 14:30:00,88.4,66.6,30.09,SSW,212,0.0,2.5,48,0.00,,,0.00,WSDL version 420,2013-06-23 18:30:00,
2013-06-23 14:36:00,88.1,65.3,30.09,NW,315,2.1,2.7,47,0.00,,,0.00,WSDL version 420,2013-06-23 18:36:00,
2013-06-23 14:41:00,87.9,65.0,30.09,SSE,158,1.0,2.7,47,0.00,,,0.00,WSDL version 420,2013-06-23 18:41:00,
2013-06-23 14:46:00,87.9,64.9,30.09,SSE,162,2.3,3.1,46,0.00,,,0.00,WSDL version 420,2013-06-23 18:46:00,
2013-06-23 14:52:00,87.3,65.0,30.09,SE,141,1.3,4.0,48,0.00,,,0.00,WSDL version 420,2013-06-23 18:52:00,
2013-06-23 14:57:00,87.0,64.7,30.09,SE,144,1.3,4.0,48,0.00,,,0.00,WSDL version 420,2013-06-23 18:57:00,
2013-06-23 15:03:00,86.6,64.6,30.09,South,180,4.1,5.8,47,0.00,,,0.00,WSDL version 420,2013-06-23 19:03:00,
2013-06-23 15:08:00,86.2,64.4,30.09,South,180,2.4,5.8,49,0.00,,,0.00,WSDL version 420,2013-06-23 19:08:00,
2013-06-23 15:14:00,86.0,64.2,30.09,SSW,208,4.3,4.9,49,0.00,,,0.00,WSDL version 420,2013-06-23 19:14:00,
2013-06-23 15:19:00,85.6,63.7,30.09,NE,51,2.0,4.9,48,0.00,,,0.00,WSDL version 420,2013-06-23 19:19:00,
2013-06-23 15:25:00,85.2,63.1,30.09,ENE,75,1.9,4.0,48,0.00,,,0.00,WSDL version 420,2013-06-23 19:25:00,
2013-06-23 15:30:00,-999.0,-99.9,30.09,SSW,203,4.9,7.4,-999,0.00,,,0.00,WSDL version 420,2013-06-23 19:30:00,
2013-06-23 15:35:00,85.2,62.7,30.09,ESE,117,3.3,7.4,47,0.00,,,0.00,WSDL version 420,2013-06-23 19:35:00,
2013-06-23 15:41:00,85.2,62.7,30.09,South,171,1.5,5.8,47,0.00,,,0.00,WSDL version 420,2013-06-23 19:41:00,
2013-06-23 15:46:00,85.2,63.3,30.09,WSW,248,2.2,5.8,48,0.00,,,0.00,WSDL version 420,2013-06-23 19:46:00,
2013-06-23 15:52:00,85.0,63.0,30.09,SW,234,3.4,5.8,48,0.00,,,0.00,WSDL version 420,2013-06-23 19:52:00,
2013-06-23 15:57:00,85.3,63.6,30.09,WSW,242,2.2,5.8,49,0.00,,,0.00,WSDL version 420,2013-06-23 19:57:00,
2013-06-23 16:03:00,-999.0,-99.9,30.09,SW,225,3.0,3.8,-999,0.00,,,0.00,WSDL version 420,2013-06-23 20:03:00,
2013-06-23 16:08:00,85.0,63.4,30.09,West,281,3.5,4.7,48,-99.99,,,-99.99,WSDL version 420,2013-06-23 20:08:00,
2013-06-23 16:14:00,84.7,63.4,30.09,ESE,117,3.1,4.7,49,0.00,,,0.00,WSDL version 420,2013-06-23 20:14:00,
2013-06-23 16:19:00,84.6,63.9,30.09,SSW,208,3.0,4.9,51,0.00,,,0.00,WSDL version 420,2013-06-23 20:19:00,
2013-06-23 16:25:00,84.7,64.8,30.06,SW,219,1.8,4.9,52,0.00,,,0.00,WSDL version 420,2013-06-23 20:25:00,
2013-06-23 16:30:00,-999.0,-99.9,30.06,WNW,293,3.4,4.0,-999,0.00,,,0.00,WSDL version 420,2013-06-23 20:30:00,
2013-06-23 16:36:00,84.8,64.7,30.06,SE,135,2.5,4.0,51,0.00,,,0.00,WSDL version 420,2013-06-23 20:36:00,
2013-06-23 16:41:00,84.6,64.8,30.06,SW,225,2.3,2.7,52,0.00,,,0.00,WSDL version 420,2013-06-23 20:41:00,
2013-06-23 16:46:00,84.4,64.3,30.06,SE,124,1.7,6.0,51,0.00,,,0.00,WSDL version 420,2013-06-23 20:46:00,
2013-06-23 16:52:00,84.4,64.8,30.06,WSW,243,2.2,6.0,52,0.00,,,0.00,WSDL version 420,2013-06-23 20:52:00,
2013-06-23 16:57:00,84.5,65.1,30.06,SW,225,1.1,2.5,53,0.00,,,0.00,WSDL version 420,2013-06-23 20:57:00,
2013-06-23 17:03:00,84.7,65.5,30.06,South,173,1.6,2.5,53,0.00,,,0.00,WSDL version 420,2013-06-23 21:03:00,
2013-06-23 17:08:00,84.9,65.7,30.06,SSW,208,0.8,2.5,53,0.00,,,0.00,WSDL version 420,2013-06-23 21:08:00,
2013-06-23 17:14:00,85.3,66.8,30.06,SSE,158,2.2,2.2,54,0.00,,,0.00,WSDL version 420,2013-06-23 21:14:00,
2013-06-23 17:19:00,85.3,67.5,30.06,SSW,210,1.9,3.1,56,0.00,,,0.00,WSDL version 420,2013-06-23 21:19:00,
2013-06-23 17:25:00,-999.0,-99.9,30.06,NE,34,4.4,4.7,-999,0.00,,,0.00,WSDL version 420,2013-06-23 21:25:00,
2013-06-23 17:30:00,83.8,68.0,30.06,NW,326,2.9,4.7,59,0.00,,,0.00,WSDL version 420,2013-06-23 21:30:00,
2013-06-23 17:36:00,83.7,67.7,30.06,South,191,2.2,3.8,59,0.00,,,0.00,WSDL version 420,2013-06-23 21:36:00,
2013-06-23 17:42:00,83.5,67.8,30.06,SE,146,2.8,3.8,60,0.00,,,0.00,WSDL version 420,2013-06-23 21:42:00,
2013-06-23 17:47:00,83.1,68.0,30.06,South,186,1.7,3.8,61,0.00,,,0.00,WSDL version 420,2013-06-23 21:47:00,
2013-06-23 17:53:00,82.5,67.9,30.06,SSW,203,2.5,4.3,62,0.00,,,0.00,WSDL version 420,2013-06-23 21:53:00,
2013-06-23 17:58:00,82.0,68.1,30.06,West,270,1.2,4.3,63,0.00,,,0.00,WSDL version 420,2013-06-23 21:58:00,
2013-06-23 18:04:00,81.9,67.7,30.06,WSW,255,1.0,3.1,63,0.00,,,0.00,WSDL version 420,2013-06-23 22:04:00,
2013-06-23 18:09:00,81.6,68.2,30.06,SW,214,1.1,3.1,64,0.00,,,0.00,WSDL version 420,2013-06-23 22:09:00,
2013-06-23 18:15:00,81.1,67.8,30.06,South,180,3.5,3.6,64,0.00,,,0.00,WSDL version 420,2013-06-23 22:15:00,
2013-06-23 18:20:00,81.0,67.7,30.06,West,270,1.5,3.6,64,0.00,,,0.00,WSDL version 420,2013-06-23 22:20:00,
2013-06-23 18:26:00,80.7,67.9,30.06,SE,124,3.0,4.0,65,0.00,,,0.00,WSDL version 420,2013-06-23 22:26:00,
2013-06-23 18:31:00,80.3,68.2,30.06,West,276,1.6,4.0,67,0.00,,,0.00,WSDL version 420,2013-06-23 22:31:00,
2013-06-23 18:37:00,80.2,68.2,30.06,SW,214,1.1,2.7,67,0.00,,,0.00,WSDL version 420,2013-06-23 22:37:00,
2013-06-23 18:43:00,80.1,68.1,30.06,SSW,207,2.3,2.9,67,0.00,,,0.00,WSDL version 420,2013-06-23 22:43:00,
2013-06-23 18:48:00,-999.0,-99.9,30.06,SSE,158,0.0,2.9,-999,0.00,,,0.00,WSDL version 420,2013-06-23 22:48:00,
2013-06-23 18:54:00,79.6,68.3,30.06,SW,225,0.0,2.2,69,0.00,,,0.00,WSDL version 420,2013-06-23 22:54:00,
2013-06-23 18:59:00,79.4,68.3,30.06,West,259,2.6,2.9,69,0.00,,,0.00,WSDL version 420,2013-06-23 22:59:00,
2013-06-23 19:05:00,79.3,68.2,30.06,WNW,287,0.9,2.9,69,0.00,,,0.00,WSDL version 420,2013-06-23 23:05:00,
2013-06-23 19:10:00,79.2,68.5,30.06,SSW,203,0.0,1.6,71,0.00,,,0.00,WSDL version 420,2013-06-23 23:10:00,
2013-06-23 19:16:00,79.3,68.6,30.06,SSE,165,2.8,5.4,70,0.00,,,0.00,WSDL version 420,2013-06-23 23:16:00,
2013-06-23 19:21:00,79.2,68.5,30.06,SW,225,1.6,5.4,70,0.00,,,0.00,WSDL version 420,2013-06-23 23:21:00,
2013-06-23 19:27:00,79.1,68.9,30.06,South,169,1.0,2.7,71,0.00,,,0.00,WSDL version 420,2013-06-23 23:27:00,
2013-06-23 19:32:00,78.7,68.5,30.06,SSW,210,0.9,2.7,71,0.00,,,0.00,WSDL version 420,2013-06-23 23:32:00,
2013-06-23 19:38:00,78.8,68.4,30.06,SW,225,2.9,4.7,70,0.00,,,0.00,WSDL version 420,2013-06-23 23:38:00,
2013-06-23 19:44:00,78.7,68.1,30.06,South,191,2.3,4.7,70,0.00,,,0.00,WSDL version 420,2013-06-23 23:44:00,
2013-06-23 19:49:00,78.5,67.8,30.06,SW,233,3.3,5.4,69,0.00,,,0.00,WSDL version 420,2013-06-23 23:49:00,
2013-06-23 19:55:00,78.4,67.4,30.06,WSW,248,2.0,5.4,69,0.00,,,0.00,WSDL version 420,2013-06-23 23:55:00,
2013-06-23 20:00:00,78.3,67.3,30.06,SW,225,0.0,3.1,69,-99.99,,,-99.99,WSDL version 420,2013-06-24 00:00:00,
2013-06-23 20:06:00,78.0,67.0,30.06,South,185,0.4,2.5,69,0.00,,,0.00,WSDL version 420,2013-06-24 00:06:00,
2013-06-23 20:12:00,77.7,66.8,30.09,ESE,105,0.6,1.3,70,0.00,,,0.00,WSDL version 420,2013-06-24 00:12:00,
2013-06-23 20:17:00,77.5,67.1,30.09,SW,225,0.0,2.0,71,0.00,,,0.00,WSDL version 420,2013-06-24 00:17:00,
2013-06-23 20:23:00,77.1,66.8,30.09,WSW,248,0.0,2.0,71,0.00,,,0.00,WSDL version 420,2013-06-24 00:23:00,
2013-06-23 20:28:00,76.8,66.7,30.09,SW,236,0.0,0.0,71,0.00,,,0.00,WSDL version 420,2013-06-24 00:28:00,
2013-06-23 20:34:00,76.6,66.7,30.09,South,191,0.6,1.1,71,0.00,,,0.00,WSDL version 420,2013-06-24 00:34:00,
2013-06-23 20:40:00,76.3,66.9,30.09,South,180,1.2,2.5,73,0.00,,,0.00,WSDL version 420,2013-06-24 00:40:00,
2013-06-23 20:45:00,76.2,66.9,30.09,SW,225,0.6,3.1,73,0.00,,,0.00,WSDL version 420,2013-06-24 00:45:00,
2013-06-23 20:51:00,75.9,67.2,30.09,WSW,243,1.6,3.1,75,0.00,,,0.00,WSDL version 420,2013-06-24 00:51:00,
2013-06-23 20:56:00,75.5,66.8,30.09,WSW,248,0.4,2.7,75,0.00,,,0.00,WSDL version 420,2013-06-24 00:56:00,
2013-06-23 21:02:00,75.3,66.8,30.09,SW,225,0.0,1.6,75,0.00,,,0.00,WSDL version 420,2013-06-24 01:02:00,
2013-06-23 21:07:00,75.1,67.2,30.09,SW,225,0.0,1.6,77,0.00,,,0.00,WSDL version 420,2013-06-24 01:07:00,
2013-06-23 21:13:00,75.0,67.3,30.09,WSW,248,0.0,1.3,77,0.00,,,0.00,WSDL version 420,2013-06-24 01:13:00,
2013-06-23 21:19:00,74.8,67.1,30.09,SW,225,2.0,2.0,77,0.00,,,0.00,WSDL version 420,2013-06-24 01:19:00,
2013-06-23 21:24:00,74.6,67.3,30.09,SW,218,0.0,2.0,78,0.00,,,0.00,WSDL version 420,2013-06-24 01:24:00,
2013-06-23 21:30:00,74.4,67.1,30.09,SW,225,0.0,0.0,78,0.00,,,0.00,WSDL version 420,2013-06-24 01:30:00,
2013-06-23 21:36:00,74.3,67.4,30.09,SW,225,1.3,2.0,79,0.00,,,0.00,WSDL version 420,2013-06-24 01:36:00,
2013-06-23 21:41:00,74.3,67.4,30.09,SSW,203,0.0,2.0,79,0.00,,,0.00,WSDL version 420,2013-06-24 01:41:00,
2013-06-23 21:47:00,73.9,67.1,30.09,SW,225,0.4,2.5,80,0.00,,,0.00,WSDL version 420,2013-06-24 01:47:00,
2013-06-23 21:52:00,73.7,67.0,30.09,SW,225,1.3,2.5,80,0.00,,,0.00,WSDL version 420,2013-06-24 01:52:00,
2013-06-23 21:58:00,73.4,67.0,30.09,WSW,240,0.7,1.3,81,0.00,,,0.00,WSDL version 420,2013-06-24 01:58:00,
2013-06-23 22:04:00,73.4,67.0,30.09,WSW,248,0.0,1.3,80,0.00,,,0.00,WSDL version 420,2013-06-24 02:04:00,
2013-06-23 22:09:00,-999.0,-99.9,30.12,WSW,248,0.0,0.0,-999,0.00,,,0.00,WSDL version 420,2013-06-24 02:09:00,
2013-06-23 22:15:00,73.0,67.3,30.12,WSW,248,0.0,0.0,82,0.00,,,0.00,WSDL version 420,2013-06-24 02:15:00,
2013-06-23 22:21:00,72.9,67.1,30.12,SW,225,0.0,0.0,83,0.00,,,0.00,WSDL version 420,2013-06-24 02:21:00,
2013-06-23 22:26:00,72.6,67.0,30.12,SW,225,0.0,0.0,82,0.00,,,0.00,WSDL version 420,2013-06-24 02:26:00,
2013-06-23 22:32:00,72.5,67.3,30.12,SSW,203,0.0,0.0,84,0.00,,,0.00,WSDL version 420,2013-06-24 02:32:00,
2013-06-23 22:37:00,72.3,67.0,30.12,SW,236,0.0,0.0,83,0.00,,,0.00,WSDL version 420,2013-06-24 02:37:00,
2013-06-23 22:43:00,72.3,67.2,30.12,SW,233,0.0,0.0,83,0.00,,,0.00,WSDL version 420,2013-06-24 02:43:00,
2013-06-23 22:48:00,72.2,67.5,30.12,SW,225,0.0,0.0,86,0.00,,,0.00,WSDL version 420,2013-06-24 02:48:00,
2013-06-23 22:54:00,72.0,67.4,30.09,SW,225,0.0,0.0,86,-99.99,,,-99.99,WSDL version 420,2013-06-24 02:54:00,
2013-06-23 23:00:00,71.7,66.9,30.09,SW,225,0.0,0.0,86,0.00,,,0.00,WSDL version 420,2013-06-24 03:00:00,
2013-06-23 23:06:00,71.6,67.0,30.09,WSW,248,0.0,0.0,86,0.00,,,0.00,WSDL version 420,2013-06-24 03:06:00,
2013-06-23 23:11:00,71.7,67.5,30.09,SW,225,0.0,0.0,87,0.00,,,0.00,WSDL version 420,2013-06-24 03:11:00,
2013-06-23 23:17:00,71.5,67.3,30.09,SW,225,0.0,0.0,87,0.00,,,0.00,WSDL version 420,2013-06-24 03:17:00,
2013-06-23 23:22:00,71.4,67.5,30.09,SW,225,0.4,1.1,88,0.00,,,0.00,WSDL version 420,2013-06-24 03:22:00,
2013-06-23 23:28:00,71.6,67.8,30.09,SW,225,0.0,1.1,88,0.00,,,0.00,WSDL version 420,2013-06-24 03:28:00,
2013-06-23 23:34:00,71.5,67.7,30.09,WSW,239,0.4,1.3,87,0.00,,,0.00,WSDL version 420,2013-06-24 03:34:00,
2013-06-23 23:39:00,71.4,67.6,30.09,WSW,248,0.0,1.3,88,0.00,,,0.00,WSDL version 420,2013-06-24 03:39:00,
2013-06-23 23:45:00,71.6,67.9,30.09,WSW,248,0.0,0.0,88,0.00,,,0.00,WSDL version 420,2013-06-24 03:45:00,
2013-06-23 23:51:00,71.5,67.8,30.09,WSW,243,0.0,0.0,89,0.00,,,0.00,WSDL version 420,2013-06-24 03:51:00,
2013-06-23 23:56:00,71.3,67.7,30.12,SW,225,0.0,0.0,88,0.00,,,0.00,WSDL version 420,2013-06-24 03:56:00,